New Mighty — 3FMN — position and weather

sailwx.info

Track history (hours):
 
Tides and Currents Weather Stations Pressure Air Temp Water Temp Dewpoint Dewpoint Depression Visibility Wind Speed Wind Dir Waves Ship Positions

New Mighty

Last reported at 2017-May-25 00:50 UTC. Time now 2017-May-26 05:37 UTC.
Position N 30°13' W 014°14'.

Length 292 m; draft 11.1 m.

Type: Cargo ship. MMSI: 354199000.

Date/timePositionNaut miles runAvg speedWind from/ knotsBaromVisibWave heightAir tempDewpointWater temp
2017-May-25 00:50N 30°13' W 014°14'2411.4
2017-May-24 22:42N 29°50' W 014°22'1111.6
2017-May-24 21:44N 29°39' W 014°25'511.4
2017-May-24 21:18N 29°34' W 014°26'1711.4
2017-May-24 19:46N 29°17' W 014°32'311.5
2017-May-24 19:29N 29°14' W 014°33'611.4
2017-May-24 18:59N 29°09' W 014°34'511.3
2017-May-24 18:30N 29°04' W 014°36'611.4
2017-May-24 17:57N 28°57' W 014°37'611.5
2017-May-24 17:27N 28°52' W 014°39'613.2
2017-May-24 17:00N 28°46' W 014°41'713.9
2017-May-24 16:30N 28°39' W 014°43'713.3
2017-May-24 16:00N 28°33' W 014°45'611.4
2017-May-24 15:30N 28°28' W 014°47'611.4
2017-May-24 15:00N 28°22' W 014°49'611.5
2017-May-24 14:30N 28°17' W 014°51'1211.6
2017-May-24 13:30N 28°06' W 014°55'611.7
2017-May-24 13:00N 28°00' W 014°58'611.7
2017-May-24 12:30N 27°55' W 014°60'611.9
2017-May-24 12:00N 27°49' W 015°02'612.0
2017-May-24 11:30N 27°44' W 015°04'611.6
2017-May-24 11:00N 27°38' W 015°07'611.1
2017-May-24 10:30N 27°33' W 015°09'611.1
2017-May-24 10:00N 27°27' W 015°11'  
2017-May-21 09:12N 14°07' W 017°48'312.0
2017-May-21 08:54N 14°03' W 017°48'811.9
2017-May-21 08:14N 13°55' W 017°48'  
Track history (hours):
 
Tides and Currents Weather Stations Pressure Air Temp Water Temp Dewpoint Dewpoint Depression Visibility Wind Speed Wind Dir Waves Ship Positions

New Mighty

Last reported at 2017-May-25 00:50 UTC. Time now 2017-May-26 05:37 UTC.
Position N 30°13' W 014°14'.

Length 292 m; draft 11.1 m.

Type: Cargo ship. MMSI: 354199000.

Date/timePositionNaut miles runAvg speedWind from/ knotsBaromVisibWave heightAir tempDewpointWater temp
2017-May-25 00:50N 30°13' W 014°14'2411.4
2017-May-24 22:42N 29°50' W 014°22'1111.6
2017-May-24 21:44N 29°39' W 014°25'511.4
2017-May-24 21:18N 29°34' W 014°26'1711.4
2017-May-24 19:46N 29°17' W 014°32'311.5
2017-May-24 19:29N 29°14' W 014°33'611.4
2017-May-24 18:59N 29°09' W 014°34'511.3
2017-May-24 18:30N 29°04' W 014°36'611.4
2017-May-24 17:57N 28°57' W 014°37'611.5
2017-May-24 17:27N 28°52' W 014°39'613.2
2017-May-24 17:00N 28°46' W 014°41'713.9
2017-May-24 16:30N 28°39' W 014°43'713.3
2017-May-24 16:00N 28°33' W 014°45'611.4
2017-May-24 15:30N 28°28' W 014°47'611.4
2017-May-24 15:00N 28°22' W 014°49'611.5
2017-May-24 14:30N 28°17' W 014°51'1211.6
2017-May-24 13:30N 28°06' W 014°55'611.7
2017-May-24 13:00N 28°00' W 014°58'611.7
2017-May-24 12:30N 27°55' W 014°60'611.9
2017-May-24 12:00N 27°49' W 015°02'612.0
2017-May-24 11:30N 27°44' W 015°04'611.6
2017-May-24 11:00N 27°38' W 015°07'611.1
2017-May-24 10:30N 27°33' W 015°09'611.1
2017-May-24 10:00N 27°27' W 015°11'  
2017-May-21 09:12N 14°07' W 017°48'312.0
2017-May-21 08:54N 14°03' W 017°48'811.9
2017-May-21 08:14N 13°55' W 017°48'  

Dump ship's entire track history